Time;durP1;ratioP1;P1;durP2;ratioP2;P2;SDS_P1;SDS_P2;PMS_P1;PMS_P2;Temp;Humidity;BMP_temperature;BMP_pressure;BME280_temperature;BME280_humidity;BME280_pressure;Samples;Min_cycle;Max_cycle;Signal;HPM_P1;HPM_P2
2021/03/28 00:02:21;;;;;;;7.60;6.90;;;;;;;7.02;65.84;101195.59;113857;1196;103191;-81
2021/03/28 00:04:55;;;;;;;13.03;7.67;;;;;;;6.95;65.83;101207.07;114048;1196;103260;-83
2021/03/28 00:07:43;;;;;;;11.15;7.58;;;;;;;6.88;65.84;101208.83;113709;1199;103616;-80
2021/03/28 00:10:33;;;;;;;9.20;6.85;;;;;;;6.85;65.85;101219.39;113770;1196;103200;-79
2021/03/28 00:13:09;;;;;;;11.65;8.05;;;;;;;6.81;66.00;101217.61;113920;1196;103592;-82
2021/03/28 00:15:57;;;;;;;7.90;7.03;;;;;;;6.76;65.80;101222.01;114070;1196;103185;-84
2021/03/28 00:19:07;;;;;;;10.75;8.18;;;;;;;6.76;65.79;101222.91;114204;1196;103088;-81
2021/03/28 00:21:52;;;;;;;8.73;7.55;;;;;;;6.73;65.82;101225.56;114111;1196;103180;-80
2021/03/28 00:24:38;;;;;;;12.73;9.10;;;;;;;6.75;65.88;101213.20;114088;1196;103258;-88
2021/03/28 00:27:11;;;;;;;15.43;9.43;;;;;;;6.71;65.30;101219.36;114100;1196;103280;-79
2021/03/28 00:30:07;;;;;;;15.63;9.85;;;;;;;6.68;66.17;101224.66;113966;1196;103166;-80
2021/03/28 00:32:50;;;;;;;10.73;7.88;;;;;;;6.65;66.21;101222.89;113698;1196;103133;-83
2021/03/28 00:35:23;;;;;;;12.95;8.75;;;;;;;6.62;66.11;101220.20;113774;1196;103124;-78
2021/03/28 00:38:12;;;;;;;11.23;8.67;;;;;;;6.58;66.48;101214.91;113732;1196;103136;-78
2021/03/28 00:40:40;;;;;;;10.83;8.88;;;;;;;6.52;66.23;101224.59;113999;1196;103753;-79
2021/03/28 00:43:21;;;;;;;13.20;8.38;;;;;;;6.55;66.45;101218.44;114014;1196;103203;-80
2021/03/28 00:45:56;;;;;;;20.67;9.33;;;;;;;6.60;66.58;101215.82;114059;1196;103214;-82
2021/03/28 00:48:25;;;;;;;26.78;10.53;;;;;;;6.62;66.71;101206.97;114235;1196;103257;-79
2021/03/28 00:51:11;;;;;;;13.70;10.08;;;;;;;6.61;66.31;101209.63;114172;1196;103190;-80
2021/03/28 00:53:41;;;;;;;13.70;10.15;;;;;;;6.60;66.66;101207.88;114052;1196;103107;-79
2021/03/28 00:56:37;;;;;;;12.93;9.83;;;;;;;6.64;66.77;101213.17;114014;1199;104773;-80
2021/03/28 00:59:28;;;;;;;16.35;8.73;;;;;;;6.58;66.53;101214.91;114012;1200;103277;-79
2021/03/28 01:02:06;;;;;;;12.63;10.10;;;;;;;6.56;66.61;101214.02;113937;1199;103340;-81
2021/03/28 01:04:49;;;;;;;16.60;9.80;;;;;;;6.53;66.26;101220.17;113858;1198;103332;-84
2021/03/28 01:07:36;;;;;;;9.60;8.28;;;;;;;6.45;67.08;101214.88;113902;1200;104225;-84
2021/03/28 01:10:29;;;;;;;12.43;9.40;;;;;;;6.44;66.92;101212.23;113916;1199;103447;-80
2021/03/28 01:13:33;;;;;;;10.60;8.50;;;;;;;6.43;66.62;101211.33;113904;1199;103127;-81
2021/03/28 01:16:38;;;;;;;10.20;8.37;;;;;;;6.45;66.55;101217.53;114000;1199;103283;-81
2021/03/28 01:19:07;;;;;;;10.25;9.25;;;;;;;6.35;66.86;101221.88;113980;1200;103197;-80
2021/03/28 01:21:57;;;;;;;10.98;9.10;;;;;;;6.35;66.94;101218.36;114026;1200;103113;-80
2021/03/28 01:24:27;;;;;;;9.93;8.13;;;;;;;6.35;66.75;101221.88;114118;1200;103230;-79
2021/03/28 01:27:05;;;;;;;12.88;9.08;;;;;;;6.34;66.86;101224.52;113930;1199;103241;-79
2021/03/28 01:29:46;;;;;;;13.68;9.80;;;;;;;6.30;66.47;101223.61;113879;1197;103386;-80
2021/03/28 01:32:32;;;;;;;11.35;9.00;;;;;;;6.22;66.99;101235.05;113859;1198;103210;-79
2021/03/28 01:35:11;;;;;;;9.93;7.80;;;;;;;6.15;66.84;101221.78;113902;1196;103254;-80
2021/03/28 01:38:08;;;;;;;10.20;9.20;;;;;;;6.14;67.15;101230.59;114103;1196;103699;-79
2021/03/28 01:40:56;;;;;;;14.50;9.20;;;;;;;6.11;67.04;101227.06;114053;1200;103222;-81
2021/03/28 01:43:55;;;;;;;12.30;7.63;;;;;;;6.10;66.92;101236.73;114002;1198;103275;-80
2021/03/28 01:46:59;;;;;;;14.40;9.70;;;;;;;6.06;66.85;101236.73;113939;1199;103517;-79
2021/03/28 01:50:15;;;;;;;10.18;7.88;;;;;;;6.05;67.29;101238.50;113864;1200;103274;-81
2021/03/28 01:53:11;;;;;;;9.13;7.77;;;;;;;6.02;67.58;101246.39;113738;1203;103519;-79
2021/03/28 01:55:46;;;;;;;10.05;8.40;;;;;;;6.01;67.50;101257.84;113758;1200;103162;-80
2021/03/28 01:58:20;;;;;;;9.25;8.05;;;;;;;6.03;66.92;101248.17;113663;1200;103391;-78
2021/03/28 02:01:18;;;;;;;9.30;7.80;;;;;;;6.03;66.93;101248.17;113705;1203;103632;-86
2021/03/28 02:03:45;;;;;;;10.67;8.20;;;;;;;5.99;66.90;101254.31;113797;1200;103236;-79
2021/03/28 02:06:49;;;;;;;11.13;7.60;;;;;;;5.95;66.68;101257.78;113630;1202;103191;-85
2021/03/28 02:09:46;;;;;;;8.93;6.50;;;;;;;5.88;67.14;101258.59;113654;1200;104198;-80
2021/03/28 02:12:17;;;;;;;10.30;7.53;;;;;;;5.78;67.55;101253.25;113689;1203;103552;-81
2021/03/28 02:15:22;;;;;;;9.95;6.60;;;;;;;5.80;66.87;101261.22;113962;1200;103113;-81
2021/03/28 02:18:07;;;;;;;7.87;6.97;;;;;;;5.74;67.11;101264.67;113901;1199;103665;-84
2021/03/28 02:21:10;;;;;;;14.13;8.47;;;;;;;5.69;66.91;101262.02;113888;1200;103274;-84
2021/03/28 02:24:13;;;;;;;8.50;7.10;;;;;;;5.71;67.39;101263.79;113813;1200;103574;-82
2021/03/28 02:27:17;;;;;;;8.37;6.37;;;;;;;5.72;67.05;101258.51;113926;1196;103287;-81
2021/03/28 02:29:51;;;;;;;9.73;6.55;;;;;;;5.67;66.39;101255.81;113941;1196;103037;-84
2021/03/28 02:32:31;;;;;;;11.60;7.00;;;;;;;5.64;66.45;101263.73;114068;1196;103264;-81
2021/03/28 02:35:21;;;;;;;11.80;7.55;;;;;;;5.59;66.56;101260.16;114196;1196;103146;-80
2021/03/28 02:38:25;;;;;;;7.33;6.48;;;;;;;5.38;66.33;101252.06;114367;1196;103225;-87
2021/03/28 02:41:05;;;;;;;6.78;6.10;;;;;;;5.44;66.50;101268.84;114073;1196;103639;-80
2021/03/28 02:43:52;;;;;;;7.98;6.95;;;;;;;5.37;66.72;101274.93;114063;1196;103104;-79
2021/03/28 02:46:25;;;;;;;11.33;7.73;;;;;;;5.36;66.60;101279.34;114001;1196;103047;-79
2021/03/28 02:49:26;;;;;;;11.28;7.78;;;;;;;5.33;67.06;101273.13;114178;1196;103210;-79
2021/03/28 02:52:31;;;;;;;7.93;7.13;;;;;;;5.32;66.88;101284.59;114164;1196;103606;-80
2021/03/28 02:55:10;;;;;;;7.53;6.70;;;;;;;5.33;67.12;101291.63;114242;1196;103251;-81
2021/03/28 02:58:08;;;;;;;7.18;6.48;;;;;;;5.32;67.21;101288.11;114096;1196;103210;-78
2021/03/28 03:01:20;;;;;;;8.87;6.57;;;;;;;5.28;67.04;101290.72;114256;1196;103153;-80
2021/03/28 03:04:07;;;;;;;9.83;6.80;;;;;;;5.14;66.94;101293.20;114142;1196;103142;-83
2021/03/28 03:06:53;;;;;;;9.03;7.07;;;;;;;5.10;66.92;101300.20;114123;1196;103083;-80
2021/03/28 03:09:56;;;;;;;8.55;7.60;;;;;;;5.13;67.10;101310.81;114011;1199;103287;-79
2021/03/28 03:12:56;;;;;;;7.63;6.50;;;;;;;5.10;67.22;101313.40;114121;1200;103288;-79
2021/03/28 03:15:48;;;;;;;11.83;7.63;;;;;;;5.08;67.34;101312.52;114191;1196;103581;-79
2021/03/28 03:18:52;;;;;;;11.23;7.00;;;;;;;5.07;67.74;101309.86;114205;1196;103274;-79
2021/03/28 03:21:48;;;;;;;13.03;8.10;;;;;;;5.02;67.29;101309.80;114157;1196;103095;-81
2021/03/28 03:24:38;;;;;;;8.30;7.30;;;;;;;4.99;67.69;101308.00;114008;1196;103637;-79
2021/03/28 03:27:35;;;;;;;10.95;7.80;;;;;;;4.88;68.00;101306.10;114194;1196;103306;-80
2021/03/28 03:30:23;;;;;;;10.10;8.17;;;;;;;4.83;68.03;101314.86;114248;1196;103066;-79
2021/03/28 03:33:08;;;;;;;10.37;7.70;;;;;;;4.84;67.68;101321.05;114251;1196;103211;-78
2021/03/28 03:35:56;;;;;;;13.53;9.23;;;;;;;4.80;67.57;101333.30;114262;1196;103312;-79
2021/03/28 03:38:48;;;;;;;12.73;8.67;;;;;;;4.80;68.43;101340.34;114169;1196;103049;-79
2021/03/28 03:41:22;;;;;;;13.75;8.78;;;;;;;4.68;68.72;101333.16;114282;1196;103166;-80
2021/03/28 03:44:09;;;;;;;13.00;9.20;;;;;;;4.68;68.31;101343.71;114243;1196;103063;-81
2021/03/28 03:47:14;;;;;;;10.63;8.40;;;;;;;4.63;68.62;101341.00;113946;1195;103286;-79
2021/03/28 03:50:06;;;;;;;13.13;7.75;;;;;;;4.55;68.98;101337.38;114330;1195;104880;-78
2021/03/28 03:52:54;;;;;;;12.20;8.88;;;;;;;4.44;69.46;101345.14;114203;1196;103322;-79
2021/03/28 03:55:28;;;;;;;9.73;8.68;;;;;;;4.45;69.01;101351.30;114247;1196;103132;-79
2021/03/28 03:58:18;;;;;;;11.90;8.20;;;;;;;4.47;68.76;101355.73;114230;1196;103245;-78
2021/03/28 04:01:19;;;;;;;12.00;9.38;;;;;;;4.50;69.30;101365.44;114515;1196;103207;-79
2021/03/28 04:03:49;;;;;;;11.85;8.10;;;;;;;4.47;69.50;101365.41;114156;1196;103101;-83
2021/03/28 04:06:50;;;;;;;12.50;9.73;;;;;;;4.46;69.09;101371.53;114212;1196;103164;-79
2021/03/28 04:09:21;;;;;;;8.77;7.53;;;;;;;4.56;69.03;101377.82;114293;1196;104129;-81
2021/03/28 04:12:12;;;;;;;7.87;7.07;;;;;;;4.58;69.46;101381.38;114324;1196;103264;-88
2021/03/28 04:14:42;;;;;;;11.53;8.78;;;;;;;4.58;68.76;101386.66;113938;1196;104697;-80
2021/03/28 04:17:32;;;;;;;13.50;8.00;;;;;;;4.59;69.69;101393.72;114020;1196;103098;-80
2021/03/28 04:20:08;;;;;;;9.23;8.33;;;;;;;4.58;68.96;101394.57;114000;1196;103207;-79
2021/03/28 04:22:45;;;;;;;10.20;9.03;;;;;;;4.60;68.88;101403.38;113802;1196;103334;-79
2021/03/28 04:25:39;;;;;;;12.33;8.17;;;;;;;4.66;69.59;101409.63;114293;1196;103104;-81
2021/03/28 04:28:29;;;;;;;19.13;9.50;;;;;;;4.63;69.46;101406.95;114223;1196;103184;-80
2021/03/28 04:30:56;;;;;;;12.13;9.30;;;;;;;4.62;69.03;101406.94;114404;1196;103161;-80
2021/03/28 04:33:25;;;;;;;15.27;9.63;;;;;;;4.62;69.29;101409.58;114123;1196;103210;-86
2021/03/28 04:36:11;;;;;;;11.23;8.88;;;;;;;4.63;69.60;101414.00;114275;1196;103233;-79
2021/03/28 04:39:09;;;;;;;11.67;8.57;;;;;;;4.66;68.64;101406.12;114422;1195;103098;-80
2021/03/28 04:42:01;;;;;;;9.23;7.85;;;;;;;4.68;68.72;101414.95;114241;1196;103290;-82
2021/03/28 04:45:06;;;;;;;14.13;9.70;;;;;;;4.69;68.53;101421.98;114296;1196;103722;-81
2021/03/28 04:47:47;;;;;;;11.63;9.20;;;;;;;4.73;68.58;101420.28;113998;1199;103188;-81
2021/03/28 04:51:00;;;;;;;13.30;8.55;;;;;;;4.76;69.08;101421.22;114087;1200;103278;-80
2021/03/28 04:53:57;;;;;;;10.70;8.97;;;;;;;4.77;68.33;101425.64;114169;1200;103306;-81
2021/03/28 04:56:49;;;;;;;10.60;9.13;;;;;;;4.80;68.68;101420.39;113952;1200;103149;-79
2021/03/28 04:59:42;;;;;;;10.95;8.68;;;;;;;4.80;68.45;101423.03;114234;1196;103645;-79
2021/03/28 05:03:08;;;;;;;13.80;9.20;;;;;;;4.76;68.06;101422.95;114279;1196;103124;-80
2021/03/28 05:05:49;;;;;;;11.53;7.68;;;;;;;4.73;68.25;101423.83;114375;1196;103116;-79
2021/03/28 05:08:18;;;;;;;9.30;8.30;;;;;;;4.77;69.01;101430.02;114378;1195;103119;-80
2021/03/28 05:11:04;;;;;;;15.03;9.90;;;;;;;4.77;68.41;101423.00;114299;1196;103154;-80
2021/03/28 05:13:50;;;;;;;12.43;8.10;;;;;;;4.81;68.15;101424.81;114293;1195;103101;-79
2021/03/28 05:16:35;;;;;;;13.67;9.60;;;;;;;4.90;68.57;101429.31;114293;1195;103200;-79
2021/03/28 05:19:26;;;;;;;13.07;8.93;;;;;;;4.92;68.22;101440.80;114386;1196;103165;-79
2021/03/28 05:22:34;;;;;;;10.27;7.67;;;;;;;4.93;68.53;101447.86;114266;1196;103089;-79
2021/03/28 05:25:33;;;;;;;13.00;8.97;;;;;;;4.99;68.10;101447.05;114139;1196;103095;-80
2021/03/28 05:28:38;;;;;;;13.75;10.50;;;;;;;5.01;68.19;101446.20;114259;1196;103222;-79
2021/03/28 05:31:11;;;;;;;13.70;9.20;;;;;;;5.07;67.99;101450.67;114258;1195;103152;-79
2021/03/28 05:33:59;;;;;;;10.27;8.50;;;;;;;5.10;68.34;101458.63;114309;1196;103152;-79
2021/03/28 05:36:42;;;;;;;11.05;7.80;;;;;;;5.12;67.45;101461.31;114276;1195;103165;-79
2021/03/28 05:39:17;;;;;;;11.80;8.63;;;;;;;5.11;68.10;101468.33;114252;1196;103091;-79
2021/03/28 05:42:23;;;;;;;17.73;10.95;;;;;;;5.11;68.06;101465.69;114314;1196;103467;-81
2021/03/28 05:45:21;;;;;;;12.57;10.43;;;;;;;5.13;68.03;101463.97;114162;1196;103277;-79
2021/03/28 05:48:00;;;;;;;11.50;9.45;;;;;;;5.18;68.01;101470.20;114110;1196;103210;-79
2021/03/28 05:50:33;;;;;;;9.77;8.80;;;;;;;5.22;67.88;101468.47;114381;1196;103219;-79
2021/03/28 05:53:38;;;;;;;9.13;8.23;;;;;;;5.20;67.46;101464.94;114277;1195;103098;-78
2021/03/28 05:56:14;;;;;;;11.73;8.33;;;;;;;5.21;68.32;101481.66;114175;1196;103202;-79
2021/03/28 05:59:18;;;;;;;8.90;8.10;;;;;;;5.24;67.98;101476.41;114094;1196;103056;-79
2021/03/28 06:02:08;;;;;;;9.13;8.23;;;;;;;5.32;67.89;101474.77;114217;1196;103118;-80
2021/03/28 06:05:13;;;;;;;10.33;7.30;;;;;;;5.32;67.90;101483.57;114148;1196;103514;-80
2021/03/28 06:07:58;;;;;;;12.80;8.63;;;;;;;5.28;67.94;101492.33;114189;1196;103162;-78
2021/03/28 06:10:53;;;;;;;12.47;10.03;;;;;;;5.27;67.91;101495.83;114178;1196;103095;-78
2021/03/28 06:13:34;;;;;;;10.45;7.93;;;;;;;5.32;67.45;101496.78;114072;1196;103294;-79
2021/03/28 06:16:53;;;;;;;14.90;8.03;;;;;;;5.32;67.66;101495.91;113956;1198;103402;-79
2021/03/28 06:19:38;;;;;;;11.65;8.63;;;;;;;5.32;67.12;101499.42;114081;1196;103220;-82
2021/03/28 06:22:41;;;;;;;15.13;9.45;;;;;;;5.29;67.19;101506.41;113964;1199;103095;-79
2021/03/28 06:25:14;;;;;;;12.93;8.33;;;;;;;5.25;67.69;101507.23;114069;1200;104873;-79
2021/03/28 06:27:47;;;;;;;12.55;7.68;;;;;;;5.31;67.22;101508.20;113997;1200;103693;-78
2021/03/28 06:30:29;;;;;;;9.30;7.93;;;;;;;5.25;67.03;101505.50;114086;1200;103411;-79
2021/03/28 06:33:07;;;;;;;13.90;8.27;;;;;;;5.23;67.35;101522.19;114078;1196;103690;-80
2021/03/28 06:35:59;;;;;;;14.30;10.37;;;;;;;5.18;67.91;101520.38;114273;1196;103578;-79
2021/03/28 06:38:51;;;;;;;9.10;7.70;;;;;;;5.14;67.94;101520.30;114148;1196;103127;-80
2021/03/28 06:41:41;;;;;;;10.60;9.50;;;;;;;5.22;67.93;101517.77;114136;1196;105295;-79
2021/03/28 06:44:10;;;;;;;9.77;8.60;;;;;;;5.20;68.18;101528.31;114215;1196;103236;-80
2021/03/28 06:47:01;;;;;;;11.23;8.60;;;;;;;5.22;68.10;101523.92;114281;1196;103294;-81
2021/03/28 06:49:46;;;;;;;13.38;8.20;;;;;;;5.26;68.45;101522.22;114315;1196;103098;-80
2021/03/28 06:52:46;;;;;;;9.38;8.45;;;;;;;5.39;68.69;101529.45;114305;1196;103329;-83
2021/03/28 06:55:35;;;;;;;8.23;6.83;;;;;;;5.50;68.29;101526.94;114278;1196;103111;-78
2021/03/28 06:58:58;;;;;;;10.70;7.67;;;;;;;5.60;67.97;101528.84;114185;1195;103353;-80
2021/03/28 07:01:46;;;;;;;11.00;9.33;;;;;;;5.71;68.42;101533.38;114017;1196;103178;-80
2021/03/28 07:04:41;;;;;;;15.35;10.15;;;;;;;5.75;67.89;101530.77;114228;1196;103359;-79
2021/03/28 07:07:30;;;;;;;11.03;7.70;;;;;;;5.86;67.69;101536.17;114091;1196;103264;-79
2021/03/28 07:10:39;;;;;;;12.00;7.77;;;;;;;5.92;67.21;101533.62;113962;1196;103146;-80
2021/03/28 07:13:37;;;;;;;11.80;8.37;;;;;;;5.97;66.71;101531.91;113897;1196;103270;-80
2021/03/28 07:16:16;;;;;;;9.13;8.23;;;;;;;6.00;67.37;101544.31;113929;1196;103184;-78
2021/03/28 07:19:08;;;;;;;11.10;8.80;;;;;;;6.11;67.06;101545.30;113857;1196;103191;-79
2021/03/28 07:21:57;;;;;;;9.73;7.90;;;;;;;6.14;66.20;101550.61;113800;1195;103133;-80
2021/03/28 07:24:52;;;;;;;11.43;9.10;;;;;;;6.17;66.27;101548.02;113783;1195;103133;-79
2021/03/28 07:27:30;;;;;;;12.10;10.13;;;;;;;6.30;65.70;101545.49;113620;1196;103143;-84
2021/03/28 07:30:10;;;;;;;13.67;10.10;;;;;;;6.24;65.73;101542.78;113761;1196;103249;-82
2021/03/28 07:32:54;;;;;;;13.20;9.50;;;;;;;6.27;65.61;101553.41;113930;1196;103351;-80
2021/03/28 07:36:10;;;;;;;9.40;8.50;;;;;;;6.41;65.15;101558.82;114075;1196;103264;-84
2021/03/28 07:39:08;;;;;;;14.67;8.80;;;;;;;6.48;64.87;101561.55;113792;1199;103220;-82
2021/03/28 07:41:49;;;;;;;16.23;10.30;;;;;;;6.52;63.92;101552.77;114133;1199;103187;-80
2021/03/28 07:44:37;;;;;;;10.33;9.40;;;;;;;6.58;64.44;101566.92;114244;1196;103206;-81
2021/03/28 07:47:41;;;;;;;20.67;9.73;;;;;;;6.57;64.11;101567.80;114313;1195;103127;-79
2021/03/28 07:50:40;;;;;;;15.77;9.30;;;;;;;6.48;63.84;101577.42;114312;1195;103191;-79
2021/03/28 07:53:26;;;;;;;11.53;10.30;;;;;;;6.58;63.99;101580.16;114319;1196;103091;-81
2021/03/28 07:56:12;;;;;;;11.15;9.00;;;;;;;6.66;63.92;101582.02;114082;1196;103207;-80
2021/03/28 07:59:04;;;;;;;12.43;10.57;;;;;;;6.59;63.63;101584.59;113890;1196;103207;-79
2021/03/28 08:01:50;;;;;;;14.78;9.80;;;;;;;6.50;62.95;101585.38;113627;1196;103117;-81
2021/03/28 08:04:54;;;;;;;7.80;7.10;;;;;;;6.48;63.64;101593.30;113653;1196;103479;-80
2021/03/28 08:07:49;;;;;;;9.20;8.37;;;;;;;6.37;63.86;101587.00;113917;1196;103204;-81
2021/03/28 08:10:22;;;;;;;11.98;8.85;;;;;;;6.36;63.45;101594.06;113869;1196;103152;-81
2021/03/28 08:13:27;;;;;;;12.97;8.50;;;;;;;6.48;63.83;101588.02;113871;1196;103248;-83
2021/03/28 08:16:12;;;;;;;11.20;9.20;;;;;;;6.56;63.38;101595.13;114579;1195;103150;-79
2021/03/28 08:18:52;;;;;;;9.38;7.53;;;;;;;6.60;62.76;101589.89;114676;1196;103164;-79
2021/03/28 08:21:43;;;;;;;9.13;8.23;;;;;;;6.67;62.49;101591.70;114936;1196;103136;-84
2021/03/28 08:24:23;;;;;;;11.68;8.23;;;;;;;6.77;62.53;101600.64;115046;1196;103059;-78
2021/03/28 08:27:47;;;;;;;12.80;8.60;;;;;;;6.88;61.66;101595.44;115129;1195;103193;-79
2021/03/28 08:30:24;;;;;;;9.95;8.50;;;;;;;6.94;62.11;101571.63;115305;1196;103047;-78
2021/03/28 08:33:10;;;;;;;9.70;8.70;;;;;;;7.11;60.59;101603.55;114031;1196;103126;-82
2021/03/28 08:36:07;;;;;;;10.53;8.37;;;;;;;7.04;60.39;101607.03;114243;1196;103213;-80
2021/03/28 08:38:46;;;;;;;10.80;7.77;;;;;;;6.97;60.28;101608.75;114056;1196;103197;-79
2021/03/28 08:41:32;;;;;;;9.60;7.63;;;;;;;6.99;60.76;101606.11;114170;1196;103194;-78
2021/03/28 08:44:44;;;;;;;12.70;8.63;;;;;;;6.97;60.87;101611.40;114039;1196;103348;-79
2021/03/28 08:47:54;;;;;;;11.63;8.88;;;;;;;7.01;61.38;101609.64;114213;1196;103462;-79
2021/03/28 08:50:33;;;;;;;10.05;8.68;;;;;;;6.96;61.39;101608.74;114234;1196;103238;-80
2021/03/28 08:53:25;;;;;;;16.10;8.48;;;;;;;7.03;60.95;101619.38;114330;1196;103191;-79
2021/03/28 08:56:15;;;;;;;11.48;8.33;;;;;;;6.97;60.16;101614.05;114001;1196;103536;-78
2021/03/28 08:59:12;;;;;;;11.73;8.43;;;;;;;6.96;60.64;101608.74;114489;1196;103233;-79
2021/03/28 09:01:47;;;;;;;9.20;8.23;;;;;;;7.02;61.30;101611.42;114658;1196;103203;-79
2021/03/28 09:04:51;;;;;;;12.70;9.20;;;;;;;7.08;61.15;101613.22;114751;1196;103127;-78
2021/03/28 09:07:50;;;;;;;10.77;8.87;;;;;;;7.14;60.83;101607.98;114695;1196;103191;-79
2021/03/28 09:10:39;;;;;;;19.30;9.63;;;;;;;7.17;61.29;101613.30;114451;1195;103056;-80
2021/03/28 09:13:26;;;;;;;9.83;8.43;;;;;;;7.25;60.87;101611.61;114588;1196;103469;-81
2021/03/28 09:16:00;;;;;;;9.83;8.07;;;;;;;7.22;61.56;101618.64;114220;1196;103363;-80
2021/03/28 09:18:49;;;;;;;12.23;8.53;;;;;;;7.29;61.10;101620.44;113848;1200;103252;-85
2021/03/28 09:21:29;;;;;;;14.67;8.57;;;;;;;7.29;61.46;101617.80;114442;1200;103296;-83
2021/03/28 09:24:25;;;;;;;13.13;9.73;;;;;;;7.36;61.31;101623.16;114740;1198;103287;-79
2021/03/28 09:27:27;;;;;;;12.20;8.70;;;;;;;7.34;61.28;101624.92;114161;1199;103360;-80
2021/03/28 09:30:13;;;;;;;12.15;8.80;;;;;;;7.39;61.42;101622.29;114122;1199;103283;-81
2021/03/28 09:32:42;;;;;;;14.03;10.15;;;;;;;7.38;61.20;101625.81;113963;1199;103322;-79
2021/03/28 09:35:46;;;;;;;12.58;10.40;;;;;;;7.42;61.45;101630.25;113885;1199;103265;-79
2021/03/28 09:38:33;;;;;;;13.05;10.00;;;;;;;7.40;61.00;101631.11;114188;1199;103226;-78
2021/03/28 09:41:22;;;;;;;20.40;12.13;;;;;;;7.46;61.16;101637.34;114008;1199;103206;-81
2021/03/28 09:44:19;;;;;;;18.70;11.85;;;;;;;7.44;61.25;101636.47;113971;1199;103223;-81
2021/03/28 09:47:12;;;;;;;14.50;11.23;;;;;;;7.39;61.06;101630.23;114072;1199;103313;-80
2021/03/28 09:50:20;;;;;;;17.90;12.45;;;;;;;7.71;60.51;101626.90;113969;1199;103284;-86
2021/03/28 09:53:09;;;;;;;14.63;9.70;;;;;;;8.38;59.13;101625.38;113920;1200;103306;-83
2021/03/28 09:56:18;;;;;;;13.03;9.83;;;;;;;9.27;57.51;101629.03;113829;1196;103207;-82
2021/03/28 09:59:22;;;;;;;11.60;8.97;;;;;;;9.34;57.28;101621.05;114115;1196;103181;-81
2021/03/28 10:02:09;;;;;;;11.80;8.75;;;;;;;9.27;55.70;101627.25;114188;1196;103053;-85
2021/03/28 10:05:00;;;;;;;11.38;10.23;;;;;;;9.25;54.96;101621.06;114490;1196;103092;-82
2021/03/28 10:07:36;;;;;;;10.03;9.03;;;;;;;9.94;54.01;101616.44;114193;1195;103152;-80
2021/03/28 10:10:08;;;;;;;12.28;8.38;;;;;;;10.24;52.96;101620.75;114279;1196;103280;-79
2021/03/28 10:12:48;;;;;;;14.10;9.30;;;;;;;10.22;52.57;101627.84;114711;1196;103213;-81
2021/03/28 10:15:19;;;;;;;17.18;8.98;;;;;;;9.96;52.85;101620.88;114541;1196;103121;-80
2021/03/28 10:18:29;;;;;;;11.97;9.23;;;;;;;9.90;52.89;101625.33;114310;1196;103747;-79
2021/03/28 10:21:07;;;;;;;14.90;8.83;;;;;;;10.27;51.72;101623.38;114338;1196;103022;-81
2021/03/28 10:23:53;;;;;;;9.90;7.73;;;;;;;11.60;49.44;101614.34;114150;1196;103053;-80
2021/03/28 10:26:51;;;;;;;10.40;7.87;;;;;;;12.59;45.22;101613.09;113972;1196;103261;-78
2021/03/28 10:29:33;;;;;;;11.13;7.63;;;;;;;12.29;46.33;101623.33;114199;1196;103204;-83
2021/03/28 10:32:19;;;;;;;7.23;6.55;;;;;;;12.35;44.64;101622.34;114013;1195;103081;-80
2021/03/28 10:35:31;;;;;;;9.23;6.33;;;;;;;14.17;42.76;101605.76;114170;1196;103248;-83
2021/03/28 10:38:22;;;;;;;10.68;6.80;;;;;;;13.33;42.99;101616.34;114094;1195;103165;-80
2021/03/28 10:41:06;;;;;;;10.93;7.83;;;;;;;12.71;43.35;101628.05;114151;1196;103169;-82
2021/03/28 10:43:51;;;;;;;9.05;7.33;;;;;;;13.42;42.02;101613.53;114207;1196;103191;-80
2021/03/28 10:46:37;;;;;;;8.60;5.57;;;;;;;15.60;37.83;101616.57;113910;1196;103150;-80
2021/03/28 10:49:46;;;;;;;10.30;6.00;;;;;;;15.32;37.35;101619.13;114055;1196;103099;-80
2021/03/28 10:52:32;;;;;;;8.97;6.50;;;;;;;15.43;37.45;101606.29;114034;1196;103676;-81
2021/03/28 10:55:23;;;;;;;8.53;6.88;;;;;;;14.36;38.58;101603.53;113919;1196;103538;-81
2021/03/28 10:58:09;;;;;;;7.08;6.40;;;;;;;13.74;40.31;101609.32;113956;1196;103101;-83
2021/03/28 11:00:52;;;;;;;8.67;6.20;;;;;;;13.46;41.92;101608.98;113880;1196;103705;-84
2021/03/28 11:03:57;;;;;;;7.33;5.87;;;;;;;13.14;41.99;101611.32;114199;1196;103229;-84
2021/03/28 11:07:14;;;;;;;6.90;5.93;;;;;;;12.41;41.27;101630.29;114075;1196;104269;-83
2021/03/28 11:10:18;;;;;;;7.85;6.40;;;;;;;11.61;43.82;101621.45;114093;1196;103284;-80
2021/03/28 11:13:23;;;;;;;7.93;7.03;;;;;;;11.17;45.08;101625.46;114332;1196;103297;-80
2021/03/28 11:15:58;;;;;;;7.70;6.43;;;;;;;11.02;45.55;101632.69;114262;1196;103207;-88
2021/03/28 11:18:48;;;;;;;6.18;5.40;;;;;;;10.87;45.88;101635.47;114322;1196;103094;-80
2021/03/28 11:21:34;;;;;;;8.33;7.37;;;;;;;10.77;46.40;101637.33;114489;1194;103015;-80
2021/03/28 11:24:33;;;;;;;7.60;6.65;;;;;;;10.75;47.06;101639.10;114138;1196;103155;-79
2021/03/28 11:27:55;;;;;;;12.38;9.35;;;;;;;10.68;46.99;101626.73;114275;1199;103242;-81
2021/03/28 11:30:34;;;;;;;8.03;6.68;;;;;;;10.41;47.12;101633.10;114027;1199;103280;-81
2021/03/28 11:33:20;;;;;;;15.90;12.57;;;;;;;10.29;46.37;101624.27;114322;1199;103403;-82
2021/03/28 11:36:31;;;;;;;21.23;10.57;;;;;;;10.17;46.08;101625.22;114383;1199;103840;-82
2021/03/28 11:39:16;;;;;;;13.07;9.43;;;;;;;10.16;46.62;101625.23;114118;1199;103370;-81
2021/03/28 11:41:49;;;;;;;19.70;13.47;;;;;;;10.20;47.04;101624.31;114132;1199;103373;-80
2021/03/28 11:44:40;;;;;;;17.43;5.83;;;;;;;10.15;45.60;101626.11;114347;1199;103431;-81
2021/03/28 11:47:56;;;;;;;14.43;8.47;;;;;;;10.18;45.95;101634.08;113985;1199;103194;-84
2021/03/28 11:50:40;;;;;;;15.18;7.40;;;;;;;10.06;45.73;101634.14;113935;1199;103104;-81
2021/03/28 11:53:32;;;;;;;10.28;6.63;;;;;;;9.97;46.43;101635.95;114398;1200;103184;-83
2021/03/28 11:56:01;;;;;;;8.63;7.33;;;;;;;9.90;47.29;101630.66;114323;1197;103098;-81
2021/03/28 11:58:51;;;;;;;11.63;8.57;;;;;;;9.82;48.05;101636.00;114312;1198;103171;-82
2021/03/28 12:01:54;;;;;;;11.93;8.65;;;;;;;9.83;47.83;101632.45;114407;1198;103229;-83
2021/03/28 12:04:39;;;;;;;14.23;11.15;;;;;;;9.68;48.36;101628.07;114367;1196;103236;-82
2021/03/28 12:07:27;;;;;;;10.65;7.78;;;;;;;9.71;48.63;101625.39;114593;1196;103214;-82
2021/03/28 12:10:01;;;;;;;10.10;8.70;;;;;;;9.68;47.59;101620.09;114215;1196;103111;-82
2021/03/28 12:12:49;;;;;;;12.55;10.30;;;;;;;9.61;46.92;101628.95;114475;1196;103235;-81
2021/03/28 12:15:44;;;;;;;16.50;11.08;;;;;;;9.57;47.33;101632.52;114483;1196;103512;-80
2021/03/28 12:18:21;;;;;;;15.27;9.63;;;;;;;9.55;47.17;101627.20;114531;1196;103123;-81
2021/03/28 12:21:07;;;;;;;9.40;7.73;;;;;;;9.59;47.27;101614.80;114103;1196;103101;-91
2021/03/28 12:23:48;;;;;;;11.55;7.88;;;;;;;9.61;47.41;101619.22;114452;1196;103121;-81
2021/03/28 12:26:35;;;;;;;7.78;6.05;;;;;;;9.62;46.07;101615.69;114266;1195;103213;-83
2021/03/28 12:29:31;;;;;;;11.30;9.33;;;;;;;9.64;45.87;101611.22;114497;1196;103198;-87
2021/03/28 12:31:57;;;;;;;9.90;8.05;;;;;;;9.70;46.57;101618.30;114340;1196;103171;-79
2021/03/28 12:34:30;;;;;;;6.43;5.83;;;;;;;9.76;46.36;101617.41;114361;1196;103565;-81
2021/03/28 12:37:12;;;;;;;14.93;8.30;;;;;;;9.79;46.07;101623.58;114468;1196;103191;-84
2021/03/28 12:40:00;;;;;;;8.67;6.90;;;;;;;9.72;45.59;101619.19;114470;1196;103027;-82
2021/03/28 12:42:44;;;;;;;9.10;6.13;;;;;;;9.77;46.37;101613.84;114293;1196;103062;-79
2021/03/28 12:45:11;;;;;;;12.20;7.03;;;;;;;9.75;45.56;101619.17;114304;1196;103190;-81
2021/03/28 12:47:41;;;;;;;9.25;6.20;;;;;;;9.74;46.31;101624.50;114293;1196;103523;-80
2021/03/28 12:50:14;;;;;;;12.00;7.17;;;;;;;9.81;45.89;101627.14;114468;1196;103147;-81